Time;durP1;ratioP1;P1;durP2;ratioP2;P2;SDS_P1;SDS_P2;PMS_P1;PMS_P2;Temp;Humidity;BMP_temperature;BMP_pressure;BME280_temperature;BME280_humidity;BME280_pressure;Samples;Min_cycle;Max_cycle;Signal;HPM_P1;HPM_P2
2023/06/24 00:00:27;;;;;;;8.95;8.15;;;;;;;18.21;100.00;102327.28;6181500;23;20009;-81
2023/06/24 00:03:01;;;;;;;9.60;8.60;;;;;;;18.14;100.00;102335.78;6181505;23;20054;-80
2023/06/24 00:05:27;;;;;;;9.65;8.75;;;;;;;18.10;100.00;102331.69;6154780;23;20447;-80
2023/06/24 00:07:52;;;;;;;9.30;8.38;;;;;;;18.07;100.00;102321.28;6181432;23;20008;-80
2023/06/24 00:10:18;;;;;;;10.00;9.02;;;;;;;18.03;100.00;102340.31;6181706;23;20012;-80
2023/06/24 00:12:44;;;;;;;9.93;8.90;;;;;;;18.04;100.00;102336.69;6180617;23;20013;-82
2023/06/24 00:15:29;;;;;;;8.73;7.93;;;;;;;18.01;100.00;102329.78;6181741;23;20000;-80
2023/06/24 00:18:05;;;;;;;10.32;9.32;;;;;;;17.90;100.00;102343.13;6155118;23;19997;-82
2023/06/24 00:20:31;;;;;;;10.05;8.90;;;;;;;17.85;100.00;102339.97;6132329;23;20012;-82
2023/06/24 00:22:57;;;;;;;8.68;7.88;;;;;;;17.91;100.00;102342.13;6181504;23;20309;-80
2023/06/24 00:25:22;;;;;;;9.38;8.43;;;;;;;17.83;100.00;102339.25;6155577;23;20343;-79
2023/06/24 00:27:49;;;;;;;10.30;9.30;;;;;;;17.82;100.00;102348.22;6154538;23;20333;-80
2023/06/24 00:30:14;;;;;;;10.95;8.90;;;;;;;17.74;100.00;102342.66;6181276;23;20005;-81
2023/06/24 00:32:40;;;;;;;10.45;9.45;;;;;;;17.68;100.00;102343.16;6180663;23;20084;-81
2023/06/24 00:35:06;;;;;;;10.38;9.38;;;;;;;17.68;100.00;102341.34;6180678;23;20005;-81
2023/06/24 00:37:31;;;;;;;10.18;9.13;;;;;;;17.66;100.00;102342.41;6180831;23;20004;-81
2023/06/24 00:39:59;;;;;;;10.82;9.82;;;;;;;17.58;100.00;102344.81;6179577;23;20119;-81
2023/06/24 00:42:25;;;;;;;10.38;9.38;;;;;;;17.63;100.00;102346.16;6153326;23;20404;-81
2023/06/24 00:44:50;;;;;;;11.63;9.55;;;;;;;17.57;100.00;102343.13;6180591;23;20039;-81
2023/06/24 00:47:16;;;;;;;10.55;9.55;;;;;;;17.56;100.00;102342.28;6153266;23;20092;-79
2023/06/24 00:50:25;;;;;;;11.55;10.32;;;;;;;17.59;100.00;102351.81;6180692;23;20076;-80
2023/06/24 00:52:51;;;;;;;11.75;10.55;;;;;;;17.52;100.00;102349.66;6180418;23;20080;-80
2023/06/24 00:55:17;;;;;;;11.95;10.77;;;;;;;17.49;100.00;102362.38;6179588;23;20375;-79
2023/06/24 00:58:01;;;;;;;12.13;10.82;;;;;;;17.49;100.00;102357.03;6181038;23;20332;-81
2023/06/24 01:00:26;;;;;;;14.38;11.07;;;;;;;17.43;100.00;102346.88;6180622;23;20320;-82
2023/06/24 01:02:53;;;;;;;11.63;10.43;;;;;;;17.41;100.00;102344.34;6179613;23;20078;-82
2023/06/24 01:05:23;;;;;;;13.95;11.25;;;;;;;17.39;100.00;102345.44;6180429;23;20004;-79
2023/06/24 01:07:56;;;;;;;12.25;11.05;;;;;;;17.33;100.00;102345.94;6180103;23;20001;-79
2023/06/24 01:10:25;;;;;;;14.88;11.55;;;;;;;17.27;100.00;102341.94;6180013;23;20431;-81
2023/06/24 01:12:51;;;;;;;13.00;11.43;;;;;;;17.25;100.00;102327.91;6153910;23;20375;-80
2023/06/24 01:15:22;;;;;;;13.02;11.13;;;;;;;17.25;100.00;102343.88;6179658;23;20005;-80
2023/06/24 01:17:57;;;;;;;12.48;11.20;;;;;;;17.18;100.00;102338.16;6154190;23;19996;-80
2023/06/24 01:20:41;;;;;;;12.25;11.05;;;;;;;17.20;100.00;102335.38;6180350;23;20005;-79
2023/06/24 01:23:43;;;;;;;12.20;10.98;;;;;;;17.11;100.00;102338.75;6181224;23;20001;-81
2023/06/24 01:26:46;;;;;;;12.75;11.45;;;;;;;17.11;100.00;102336.09;6181658;23;20001;-80
2023/06/24 01:29:31;;;;;;;12.38;10.98;;;;;;;17.10;100.00;102331.75;6182142;23;20001;-81
2023/06/24 01:31:59;;;;;;;13.05;11.35;;;;;;;17.02;100.00;102331.50;6183222;23;20040;-81
2023/06/24 01:34:32;;;;;;;13.20;11.02;;;;;;;16.96;100.00;102331.97;6183240;23;20063;-81
2023/06/24 01:37:27;;;;;;;12.85;11.50;;;;;;;16.99;100.00;102332.59;6182329;23;20036;-80
2023/06/24 01:40:08;;;;;;;13.20;11.57;;;;;;;16.90;100.00;102328.00;6182004;23;20005;-80
2023/06/24 01:42:37;;;;;;;12.98;11.73;;;;;;;16.86;100.00;102322.06;6157119;23;20401;-80
2023/06/24 01:45:04;;;;;;;14.20;12.48;;;;;;;16.85;100.00;102331.00;6180722;23;20028;-80
2023/06/24 01:47:31;;;;;;;13.63;12.32;;;;;;;16.80;100.00;102326.97;6183270;23;20024;-80
2023/06/24 01:50:01;;;;;;;13.00;11.70;;;;;;;16.78;100.00;102328.91;6156813;23;20009;-79
2023/06/24 01:52:28;;;;;;;13.27;12.00;;;;;;;16.76;100.00;102321.06;6183108;23;20016;-79
2023/06/24 01:54:55;;;;;;;12.80;11.50;;;;;;;16.75;100.00;102330.00;6183100;23;20005;-79
2023/06/24 01:57:24;;;;;;;13.65;12.35;;;;;;;16.69;100.00;102327.81;6182201;23;20746;-80
2023/06/24 01:59:51;;;;;;;13.40;11.73;;;;;;;16.70;100.00;102321.53;6156645;23;20443;-80
2023/06/24 02:02:20;;;;;;;12.68;11.52;;;;;;;16.63;100.00;102322.94;6182305;23;20056;-80
2023/06/24 02:04:45;;;;;;;12.30;11.13;;;;;;;16.65;100.00;102314.84;6180510;23;20338;-80
2023/06/24 02:07:12;;;;;;;12.35;11.15;;;;;;;16.60;100.00;102321.34;6182602;23;20007;-80
2023/06/24 02:09:39;;;;;;;12.82;11.52;;;;;;;16.57;100.00;102315.44;6182321;23;20080;-80
2023/06/24 02:12:23;;;;;;;12.07;10.68;;;;;;;16.56;100.00;102319.03;6181098;23;20009;-80
2023/06/24 02:14:49;;;;;;;13.13;11.52;;;;;;;16.49;100.00;102310.69;6182038;23;20032;-79
2023/06/24 02:17:15;;;;;;;13.10;11.77;;;;;;;16.43;100.00;102311.16;6182007;23;20029;-80
2023/06/24 02:19:42;;;;;;;12.88;11.55;;;;;;;16.40;100.00;102308.72;6181611;23;20056;-80
2023/06/24 02:22:19;;;;;;;12.80;11.50;;;;;;;16.39;100.00;102312.31;6182259;23;20026;-81
2023/06/24 02:24:46;;;;;;;13.15;11.73;;;;;;;16.36;100.00;102311.72;6181483;23;20005;-80
2023/06/24 02:27:12;;;;;;;13.07;11.35;;;;;;;16.33;100.00;102312.78;6180810;23;20025;-79
2023/06/24 02:29:39;;;;;;;12.60;11.50;;;;;;;16.29;100.00;102314.00;6182578;23;20331;-81
2023/06/24 02:32:06;;;;;;;14.75;11.55;;;;;;;16.28;100.00;102320.25;6181849;23;20001;-80
2023/06/24 02:34:52;;;;;;;12.68;11.30;;;;;;;16.27;100.00;102316.75;6180316;23;20005;-81
2023/06/24 02:37:18;;;;;;;12.52;11.07;;;;;;;16.17;100.00;102318.41;6181704;23;19997;-81
2023/06/24 02:39:44;;;;;;;12.60;11.40;;;;;;;16.11;100.00;102316.22;6154614;23;20514;-81
2023/06/24 02:42:11;;;;;;;11.55;10.25;;;;;;;16.10;100.00;102314.53;6181817;23;20017;-79
2023/06/24 02:44:38;;;;;;;12.13;10.90;;;;;;;16.08;100.00;102313.78;6183064;23;20447;-80
2023/06/24 02:47:07;;;;;;;13.18;10.98;;;;;;;16.06;100.00;102309.56;6181441;23;20047;-79
2023/06/24 02:49:35;;;;;;;11.85;10.73;;;;;;;16.06;100.00;102315.72;6183231;23;20055;-79
2023/06/24 02:52:08;;;;;;;11.50;10.32;;;;;;;16.06;100.00;102309.56;6182352;23;20005;-79
2023/06/24 02:54:35;;;;;;;10.90;9.90;;;;;;;16.05;100.00;102308.72;6154836;23;20044;-80
2023/06/24 02:57:00;;;;;;;10.63;9.48;;;;;;;15.96;100.00;102326.13;6182370;23;20001;-80
2023/06/24 02:59:26;;;;;;;11.27;10.18;;;;;;;15.98;100.00;102323.38;6182338;23;20036;-80
2023/06/24 03:01:52;;;;;;;10.63;9.68;;;;;;;15.91;100.00;102333.59;6181855;23;20001;-80
2023/06/24 03:04:19;;;;;;;13.45;9.73;;;;;;;15.93;100.00;102336.13;6182131;23;20012;-79
2023/06/24 03:06:46;;;;;;;10.77;9.77;;;;;;;15.86;100.00;102342.84;6182572;23;20005;-80
2023/06/24 03:09:12;;;;;;;10.57;9.48;;;;;;;15.85;100.00;102349.13;6181111;23;20012;-79
2023/06/24 03:11:44;;;;;;;10.48;9.48;;;;;;;15.80;100.00;102352.09;6182888;23;20009;-80
2023/06/24 03:14:11;;;;;;;10.55;9.48;;;;;;;15.78;100.00;102347.88;6181927;23;20028;-79
2023/06/24 03:16:40;;;;;;;10.70;9.70;;;;;;;15.75;100.00;102348.09;6181342;23;20001;-80
2023/06/24 03:19:09;;;;;;;10.60;9.50;;;;;;;15.73;100.00;102350.84;6181196;23;20012;-79
2023/06/24 03:21:35;;;;;;;11.50;10.30;;;;;;;15.70;100.00;102344.91;6154545;23;20420;-80
2023/06/24 03:24:00;;;;;;;10.80;9.75;;;;;;;15.68;100.00;102341.53;6181331;23;20005;-80
2023/06/24 03:26:36;;;;;;;10.48;9.38;;;;;;;15.65;100.00;102343.44;6181303;23;20008;-79
2023/06/24 03:29:03;;;;;;;10.23;9.30;;;;;;;15.58;100.00;102344.81;6180595;23;20009;-80
2023/06/24 03:31:28;;;;;;;11.07;9.68;;;;;;;15.57;100.00;102337.78;6181268;23;20070;-80
2023/06/24 03:33:54;;;;;;;12.27;10.50;;;;;;;15.54;100.00;102337.16;6181218;23;20340;-79
2023/06/24 03:36:20;;;;;;;12.13;10.93;;;;;;;15.53;100.00;102325.69;6180366;23;20335;-80
2023/06/24 03:38:45;;;;;;;12.15;10.95;;;;;;;15.57;100.00;102324.50;6154916;23;20035;-80
2023/06/24 03:41:11;;;;;;;13.57;11.35;;;;;;;15.58;100.00;102325.41;6180801;23;20017;-80
2023/06/24 03:43:46;;;;;;;12.60;11.32;;;;;;;15.55;100.00;102329.09;6181118;23;20535;-80
2023/06/24 03:46:12;;;;;;;12.80;11.60;;;;;;;15.52;100.00;102325.81;6155220;23;20012;-79
2023/06/24 03:48:38;;;;;;;13.38;11.15;;;;;;;15.49;100.00;102340.13;6182608;23;20005;-79
2023/06/24 03:51:03;;;;;;;12.18;10.68;;;;;;;15.44;100.00;102334.31;6181186;23;20339;-79
2023/06/24 03:53:29;;;;;;;13.05;11.65;;;;;;;15.50;100.00;102340.97;6155470;23;20011;-80
2023/06/24 03:55:55;;;;;;;13.90;12.40;;;;;;;15.49;100.00;102341.94;6181849;23;20546;-80
2023/06/24 03:58:21;;;;;;;13.68;12.32;;;;;;;15.49;100.00;102340.13;6154324;23;20004;-80
2023/06/24 04:00:49;;;;;;;14.05;12.65;;;;;;;15.50;100.00;102343.63;6181961;23;20005;-80
2023/06/24 04:03:20;;;;;;;13.32;12.05;;;;;;;15.70;100.00;102350.22;6155163;23;20008;-79
2023/06/24 04:05:45;;;;;;;12.60;11.32;;;;;;;16.28;100.00;102347.66;6180853;23;20005;-80
2023/06/24 04:08:11;;;;;;;11.90;10.70;;;;;;;17.37;100.00;102350.88;6181417;23;20127;-80
2023/06/24 04:10:36;;;;;;;11.68;10.68;;;;;;;18.40;93.59;102338.09;6182139;23;20063;-80
2023/06/24 04:13:03;;;;;;;11.40;10.30;;;;;;;19.32;87.07;102347.16;6180960;23;20016;-80
2023/06/24 04:15:28;;;;;;;10.88;9.88;;;;;;;20.25;81.66;102337.03;6180989;23;20347;-80
2023/06/24 04:17:54;;;;;;;10.73;9.65;;;;;;;20.69;77.74;102336.59;6153577;23;20008;-78
2023/06/24 04:20:20;;;;;;;12.07;9.57;;;;;;;20.92;74.83;102338.00;6180677;23;20335;-79
2023/06/24 04:22:47;;;;;;;10.70;9.73;;;;;;;20.56;76.04;102351.13;6154506;23;20482;-80
2023/06/24 04:25:18;;;;;;;10.50;9.40;;;;;;;20.45;75.89;102339.75;6179834;23;20005;-80
2023/06/24 04:27:44;;;;;;;10.40;9.38;;;;;;;19.91;75.86;102349.91;6180467;23;20043;-80
2023/06/24 04:30:10;;;;;;;11.90;9.88;;;;;;;19.58;76.82;102342.22;6154183;23;20047;-79
2023/06/24 04:32:42;;;;;;;12.65;9.02;;;;;;;19.24;79.04;102339.84;6180783;23;20459;-78
2023/06/24 04:35:08;;;;;;;11.25;9.93;;;;;;;18.92;80.56;102345.28;6154537;23;20008;-79
2023/06/24 04:37:33;;;;;;;12.02;10.05;;;;;;;18.65;81.79;102327.13;6154660;23;20075;-79
2023/06/24 04:39:59;;;;;;;12.63;11.43;;;;;;;18.23;83.03;102336.00;6179683;23;20029;-80
2023/06/24 04:42:24;;;;;;;11.50;10.30;;;;;;;18.13;84.84;102342.09;6180665;23;20289;-78
2023/06/24 04:44:50;;;;;;;13.68;11.52;;;;;;;17.96;85.71;102345.28;6180431;23;20429;-79
2023/06/24 04:47:19;;;;;;;13.73;11.40;;;;;;;17.83;87.12;102345.44;6179710;23;20387;-79
2023/06/24 04:49:44;;;;;;;17.98;11.77;;;;;;;17.61;87.57;102344.56;6180879;23;20335;-79
2023/06/24 04:52:13;;;;;;;14.25;12.68;;;;;;;17.54;88.38;102347.72;6181357;23;20001;-79
2023/06/24 04:54:40;;;;;;;13.73;12.32;;;;;;;17.42;89.37;102348.69;6181070;23;20005;-79
2023/06/24 04:57:09;;;;;;;16.23;12.75;;;;;;;17.25;90.59;102346.53;6181612;23;20338;-80
2023/06/24 04:59:36;;;;;;;14.90;13.30;;;;;;;17.31;89.93;102343.38;6183847;23;20005;-80
2023/06/24 05:02:02;;;;;;;15.75;13.82;;;;;;;17.22;91.15;102344.13;6182946;23;20004;-79
2023/06/24 05:04:28;;;;;;;18.90;14.95;;;;;;;17.12;91.56;102343.13;6183628;23;20005;-79
2023/06/24 05:06:54;;;;;;;14.68;13.27;;;;;;;17.15;93.05;102342.88;6183464;23;20321;-79
2023/06/24 05:09:20;;;;;;;17.02;15.13;;;;;;;17.08;92.47;102342.50;6182231;23;20005;-80
2023/06/24 05:11:45;;;;;;;20.00;15.43;;;;;;;17.00;93.60;102342.25;6183546;23;20016;-80
2023/06/24 05:14:11;;;;;;;19.17;15.18;;;;;;;16.98;94.14;102346.00;6182734;23;20040;-80
2023/06/24 05:16:36;;;;;;;18.58;16.10;;;;;;;16.95;94.77;102347.09;6157525;23;20065;-81
2023/06/24 05:19:01;;;;;;;17.02;15.20;;;;;;;16.95;93.99;102349.75;6182542;23;20328;-81
2023/06/24 05:21:29;;;;;;;18.23;14.65;;;;;;;16.92;95.17;102348.19;6182027;23;20005;-80
2023/06/24 05:23:55;;;;;;;17.35;15.55;;;;;;;16.91;96.85;102342.97;6182767;23;20003;-80
2023/06/24 05:26:20;;;;;;;16.98;15.10;;;;;;;16.90;96.28;102343.94;6182211;23;20076;-81
2023/06/24 05:28:45;;;;;;;18.20;16.10;;;;;;;16.96;95.30;102337.31;6181613;23;20035;-81
2023/06/24 05:31:11;;;;;;;17.85;16.05;;;;;;;16.95;95.87;102347.09;6182614;23;20055;-80
2023/06/24 05:33:38;;;;;;;18.88;15.73;;;;;;;16.99;96.04;102343.22;6183050;23;20439;-79
2023/06/24 05:36:15;;;;;;;17.02;15.30;;;;;;;17.02;95.12;102350.97;6182101;23;20379;-80
2023/06/24 05:38:43;;;;;;;17.60;15.80;;;;;;;17.05;95.46;102352.53;6183202;23;20001;-79
2023/06/24 05:41:09;;;;;;;16.55;14.85;;;;;;;17.14;93.39;102351.81;6181929;23;20055;-79
2023/06/24 05:43:35;;;;;;;17.50;15.35;;;;;;;17.18;93.03;102345.28;6182067;23;20047;-79
2023/06/24 05:46:00;;;;;;;15.93;14.32;;;;;;;17.23;94.04;102351.13;6182697;23;20542;-79
2023/06/24 05:48:27;;;;;;;17.38;14.95;;;;;;;17.28;93.25;102353.44;6182153;23;20011;-80
2023/06/24 05:50:52;;;;;;;16.40;14.77;;;;;;;17.36;92.45;102357.19;6182335;23;20001;-80
2023/06/24 05:53:18;;;;;;;16.52;14.65;;;;;;;17.40;91.52;102358.63;6183191;23;20079;-80
2023/06/24 05:55:43;;;;;;;16.50;14.52;;;;;;;17.47;91.38;102361.63;6156933;23;20005;-80
2023/06/24 05:58:10;;;;;;;15.75;14.13;;;;;;;17.50;91.31;102353.41;6183084;23;20419;-80
2023/06/24 06:00:36;;;;;;;15.50;13.52;;;;;;;17.55;91.10;102356.56;6183743;23;20004;-80
2023/06/24 06:03:02;;;;;;;15.27;13.55;;;;;;;17.61;90.28;102352.56;6183566;23;20012;-80
2023/06/24 06:05:27;;;;;;;18.38;13.65;;;;;;;17.63;87.83;102353.31;6182322;23;20009;-80
2023/06/24 06:07:53;;;;;;;13.75;12.43;;;;;;;17.69;87.32;102350.19;6183096;23;20005;-79
2023/06/24 06:10:19;;;;;;;14.57;13.15;;;;;;;17.73;87.39;102351.63;6181404;23;20051;-80
2023/06/24 06:12:44;;;;;;;12.93;11.63;;;;;;;17.76;87.79;102354.03;6183045;23;20335;-81
2023/06/24 06:15:10;;;;;;;14.15;11.95;;;;;;;17.78;88.29;102357.44;6184294;23;20008;-80
2023/06/24 06:17:46;;;;;;;16.58;11.80;;;;;;;17.86;85.43;102365.63;6182935;23;19993;-80
2023/06/24 06:20:14;;;;;;;12.77;11.38;;;;;;;17.90;85.67;102367.06;6181734;23;20032;-80
2023/06/24 06:22:39;;;;;;;12.15;10.82;;;;;;;17.95;85.87;102362.22;6182751;23;20367;-80
2023/06/24 06:25:06;;;;;;;14.43;11.10;;;;;;;18.00;86.32;102362.69;6182218;23;20009;-80
2023/06/24 06:27:31;;;;;;;14.90;10.57;;;;;;;18.09;82.32;102364.63;6182642;23;20005;-80
2023/06/24 06:30:29;;;;;;;11.88;9.88;;;;;;;18.21;83.85;102367.25;6156502;23;20001;-79
2023/06/24 06:32:54;;;;;;;12.07;9.93;;;;;;;18.24;82.22;102369.66;6181968;23;20009;-80
2023/06/24 06:35:21;;;;;;;15.52;10.50;;;;;;;18.26;83.36;102367.72;6182402;23;20008;-81
2023/06/24 06:37:52;;;;;;;11.00;9.90;;;;;;;18.27;81.76;102369.41;6182806;23;20323;-80
2023/06/24 06:40:20;;;;;;;11.27;9.18;;;;;;;18.32;80.90;102369.88;6182022;23;20079;-80
2023/06/24 06:42:47;;;;;;;11.18;9.50;;;;;;;18.35;81.56;102373.13;6184278;23;20340;-81
2023/06/24 06:45:12;;;;;;;11.60;10.10;;;;;;;18.39;80.65;102373.72;6182368;23;20001;-80
2023/06/24 06:47:38;;;;;;;10.98;9.88;;;;;;;18.42;82.21;102374.34;6181376;23;20036;-81
2023/06/24 06:50:04;;;;;;;10.57;9.48;;;;;;;18.50;80.38;102376.38;6183747;23;20001;-82
2023/06/24 06:52:31;;;;;;;11.23;10.10;;;;;;;18.65;81.56;102375.09;6181904;23;20009;-81
2023/06/24 06:54:58;;;;;;;11.68;10.50;;;;;;;18.75;80.53;102378.69;6183472;23;20027;-81
2023/06/24 06:57:25;;;;;;;11.05;9.60;;;;;;;18.84;79.26;102370.91;6183252;23;20072;-81
2023/06/24 06:59:51;;;;;;;10.23;9.13;;;;;;;18.90;78.32;102379.22;6156052;23;20007;-81
2023/06/24 07:02:20;;;;;;;10.48;9.38;;;;;;;18.99;77.66;102383.78;6183572;23;20008;-81
2023/06/24 07:04:47;;;;;;;14.45;8.60;;;;;;;19.13;77.53;102389.75;6182651;23;20005;-81
2023/06/24 07:07:13;;;;;;;8.70;7.68;;;;;;;19.29;75.46;102390.97;6181685;23;20005;-80
2023/06/24 07:09:38;;;;;;;10.73;8.27;;;;;;;19.52;76.60;102396.97;6183028;23;20090;-81
2023/06/24 07:12:04;;;;;;;9.38;7.85;;;;;;;19.84;75.12;102394.19;6183672;23;20005;-82
2023/06/24 07:14:30;;;;;;;7.75;6.47;;;;;;;20.12;72.51;102399.75;6181752;23;20427;-82
2023/06/24 07:16:55;;;;;;;9.43;7.22;;;;;;;20.49;72.99;102400.81;6157055;23;20012;-82
2023/06/24 07:19:21;;;;;;;8.38;6.50;;;;;;;20.80;71.45;102393.47;6182053;23;20475;-81
2023/06/24 07:21:46;;;;;;;7.40;6.38;;;;;;;21.05;68.47;102392.03;6155584;23;20036;-82
2023/06/24 07:24:12;;;;;;;7.38;5.70;;;;;;;21.27;69.21;102382.88;6182161;23;20008;-81
2023/06/24 07:26:40;;;;;;;7.00;5.78;;;;;;;21.46;67.59;102392.66;6156469;23;20459;-81
2023/06/24 07:29:07;;;;;;;6.68;5.43;;;;;;;21.85;66.43;102386.13;6181417;23;20037;-81
2023/06/24 07:31:33;;;;;;;6.25;5.38;;;;;;;22.11;66.87;102383.63;6180530;23;20009;-82
2023/06/24 07:33:58;;;;;;;6.65;5.53;;;;;;;22.45;63.44;102388.31;6181665;23;20009;-81
2023/06/24 07:36:24;;;;;;;6.78;4.45;;;;;;;22.63;59.92;102377.56;6180541;23;20001;-81
2023/06/24 07:38:49;;;;;;;6.80;4.43;;;;;;;22.82;58.86;102380.09;6155075;23;20001;-82
2023/06/24 07:41:14;;;;;;;4.88;3.95;;;;;;;23.06;57.84;102382.94;6150475;23;20482;-82
2023/06/24 07:43:40;;;;;;;5.38;3.63;;;;;;;23.25;58.39;102384.59;6151146;23;20005;-82
2023/06/24 07:46:10;;;;;;;6.07;4.13;;;;;;;23.43;52.02;102382.66;6152741;23;20070;-81
2023/06/24 07:48:44;;;;;;;6.55;4.00;;;;;;;23.51;53.62;102384.53;6151957;23;20012;-81
2023/06/24 07:51:10;;;;;;;7.65;5.03;;;;;;;23.54;53.78;102386.91;6151659;23;20124;-82
2023/06/24 07:53:43;;;;;;;5.85;4.32;;;;;;;23.69;55.27;102397.94;6152227;23;20033;-81
2023/06/24 07:56:08;;;;;;;5.55;4.13;;;;;;;23.98;50.89;102381.38;6151467;23;20033;-81
2023/06/24 07:58:39;;;;;;;6.88;4.40;;;;;;;24.23;53.92;102380.44;6152790;23;20048;-81
2023/06/24 08:01:05;;;;;;;5.57;4.88;;;;;;;24.43;49.45;102380.19;6149932;23;20045;-81
2023/06/24 08:03:31;;;;;;;6.43;4.70;;;;;;;24.64;51.48;102377.81;6150724;23;20008;-81
2023/06/24 08:05:56;;;;;;;5.35;4.20;;;;;;;24.89;50.08;102375.97;6152721;23;20193;-80
2023/06/24 08:08:22;;;;;;;4.47;3.88;;;;;;;24.64;49.17;102372.44;6151961;23;20029;-82
2023/06/24 08:10:52;;;;;;;6.18;3.83;;;;;;;25.04;50.83;102376.13;6151528;23;20080;-81
2023/06/24 08:13:18;;;;;;;4.65;3.40;;;;;;;25.36;50.31;102362.59;6152066;23;20001;-81
2023/06/24 08:16:01;;;;;;;4.00;3.10;;;;;;;25.67;48.02;102370.75;6151960;23;20077;-81
2023/06/24 08:18:26;;;;;;;;;;;;;;;26.13;51.48;102360.03;6149617;23;20082;-82
2023/06/24 08:20:52;;;;;;;3.37;3.00;;;;;;;25.79;44.29;102363.94;6153272;23;20323;-81
2023/06/24 08:23:17;;;;;;;5.63;3.20;;;;;;;25.98;46.63;102367.19;6153215;23;20738;-81
2023/06/24 08:25:44;;;;;;;3.97;3.22;;;;;;;26.21;43.39;102360.81;6151342;23;20009;-81
2023/06/24 08:28:10;;;;;;;3.50;2.80;;;;;;;26.47;45.04;102365.91;6151344;23;20002;-79
2023/06/24 08:30:35;;;;;;;5.13;3.30;;;;;;;26.70;45.26;102360.44;6152607;23;20494;-80
2023/06/24 08:33:01;;;;;;;6.40;3.30;;;;;;;26.85;44.19;102357.81;6151816;23;20032;-80
2023/06/24 08:35:27;;;;;;;4.63;3.55;;;;;;;26.93;42.42;102346.06;6151740;23;20042;-80
2023/06/24 08:37:53;;;;;;;3.40;2.75;;;;;;;26.92;41.71;102352.50;6151964;23;20005;-81
2023/06/24 08:40:19;;;;;;;3.65;2.60;;;;;;;26.95;42.68;102344.84;6152821;23;20336;-81
2023/06/24 08:42:44;;;;;;;3.20;2.88;;;;;;;27.08;41.58;102355.03;6182149;23;20005;-81
2023/06/24 08:45:10;;;;;;;4.60;2.80;;;;;;;27.27;42.17;102348.25;6180574;23;20005;-82
2023/06/24 08:47:37;;;;;;;2.85;2.42;;;;;;;27.07;40.53;102347.97;6181643;23;20016;-81
2023/06/24 08:50:08;;;;;;;3.28;2.40;;;;;;;27.11;39.86;102343.88;6179148;23;20104;-81
2023/06/24 08:52:36;;;;;;;3.42;2.25;;;;;;;27.25;38.27;102348.44;6181136;23;20027;-81
2023/06/24 08:55:04;;;;;;;4.03;2.50;;;;;;;27.20;39.76;102347.31;6182241;23;20087;-81
2023/06/24 08:57:30;;;;;;;3.47;2.45;;;;;;;27.39;40.16;102347.59;6154450;23;20088;-81
2023/06/24 08:59:56;;;;;;;6.07;3.03;;;;;;;27.30;39.60;102350.59;6180632;23;20044;-81
2023/06/24 09:02:22;;;;;;;4.88;3.22;;;;;;;27.45;39.50;102349.53;6154031;23;20013;-81
2023/06/24 09:04:57;;;;;;;2.88;2.60;;;;;;;27.53;39.36;102353.16;6180781;23;20005;-80
2023/06/24 09:07:26;;;;;;;5.07;3.17;;;;;;;27.34;38.84;102349.19;6179482;23;20012;-80
2023/06/24 09:09:51;;;;;;;5.03;2.90;;;;;;;27.35;38.48;102349.00;6180586;23;20420;-82
2023/06/24 09:12:17;;;;;;;4.03;3.13;;;;;;;27.35;38.65;102351.69;6180733;23;20040;-81
2023/06/24 09:14:48;;;;;;;3.90;3.25;;;;;;;27.39;39.62;102347.59;6178523;23;20028;-81
2023/06/24 09:17:20;;;;;;;3.63;3.08;;;;;;;27.50;39.87;102342.72;6180600;23;20008;-81
2023/06/24 09:19:46;;;;;;;4.60;3.22;;;;;;;27.93;40.67;102344.53;6181069;23;20028;-80
2023/06/24 09:22:18;;;;;;;4.03;3.30;;;;;;;27.96;39.17;102336.00;6179957;23;20312;-81
2023/06/24 09:24:48;;;;;;;5.75;3.20;;;;;;;28.27;39.53;102334.91;6154395;23;20335;-81
2023/06/24 09:27:15;;;;;;;3.22;2.70;;;;;;;28.12;37.71;102328.69;6154050;23;20064;-81
2023/06/24 09:29:43;;;;;;;5.20;2.53;;;;;;;27.97;36.41;102328.72;6181544;23;20367;-80
2023/06/24 09:32:10;;;;;;;3.65;2.70;;;;;;;28.13;38.59;102322.25;6181661;23;20031;-81
2023/06/24 09:34:38;;;;;;;3.47;2.70;;;;;;;28.39;38.33;102322.50;6181971;23;20009;-81
2023/06/24 09:37:05;;;;;;;5.57;2.80;;;;;;;28.66;38.95;102318.16;6181839;23;20107;-81
2023/06/24 09:39:45;;;;;;;2.97;2.40;;;;;;;28.92;37.82;102312.13;6186000;23;19997;-81
2023/06/24 09:42:11;;;;;;;2.67;2.25;;;;;;;29.03;35.94;102308.84;6180144;23;20013;-81
2023/06/24 09:44:37;;;;;;;2.70;2.40;;;;;;;28.93;34.79;102298.38;6183314;23;20330;-81
2023/06/24 09:47:02;;;;;;;4.50;2.17;;;;;;;29.02;34.93;102307.16;6157037;23;20079;-82
2023/06/24 09:49:29;;;;;;;3.38;2.25;;;;;;;29.03;35.36;102300.72;6182413;23;20423;-82
2023/06/24 09:51:59;;;;;;;3.25;2.20;;;;;;;29.22;35.06;102305.41;6157065;23;20004;-82
2023/06/24 09:54:29;;;;;;;2.85;2.55;;;;;;;29.19;34.42;102299.53;6182760;23;20034;-82
2023/06/24 09:56:59;;;;;;;2.67;2.00;;;;;;;29.40;36.18;102298.59;6182061;23;20062;-82
2023/06/24 09:59:27;;;;;;;3.28;2.30;;;;;;;29.33;35.94;102299.41;6182695;23;20001;-81
2023/06/24 10:01:54;;;;;;;2.97;2.47;;;;;;;29.43;35.61;102298.19;6182518;23;20087;-81
2023/06/24 10:04:22;;;;;;;3.72;2.47;;;;;;;29.66;36.21;102297.88;6181552;23;20005;-81
2023/06/24 10:09:50;;;;;;;3.60;3.10;;;;;;;29.52;35.51;102299.72;6181623;23;20094;-81
2023/06/24 10:12:16;;;;;;;4.32;2.80;;;;;;;29.28;34.18;102296.47;6182444;23;20013;-80
2023/06/24 10:14:41;;;;;;;4.05;2.60;;;;;;;29.04;35.32;102296.97;6182896;23;20000;-81
2023/06/24 10:17:11;;;;;;;2.60;2.20;;;;;;;29.33;36.60;102293.97;6182520;23;20445;-80
2023/06/24 10:19:44;;;;;;;5.68;2.35;;;;;;;29.32;34.44;102302.31;6182470;23;20021;-81
2023/06/24 10:22:39;;;;;;;4.45;2.20;;;;;;;29.29;36.61;102292.72;6182224;23;20514;-82
2023/06/24 10:25:08;;;;;;;3.83;2.97;;;;;;;29.10;34.84;102296.16;6155248;23;20036;-81
2023/06/24 10:27:42;;;;;;;7.22;3.00;;;;;;;28.87;36.92;102292.91;6182285;23;20005;-81
2023/06/24 10:30:08;;;;;;;7.55;2.65;;;;;;;29.05;36.32;102293.22;6183463;23;20004;-80
2023/06/24 10:32:43;;;;;;;3.58;2.90;;;;;;;29.07;35.94;102290.31;6182963;23;20059;-82
2023/06/24 10:35:25;;;;;;;3.67;2.67;;;;;;;29.23;37.30;102288.09;6183282;23;20005;-81
2023/06/24 10:37:56;;;;;;;4.30;3.03;;;;;;;29.07;35.75;102283.00;6182108;23;19997;-81
2023/06/24 10:40:39;;;;;;;4.07;2.88;;;;;;;28.95;37.15;102281.91;6181844;23;20017;-80
2023/06/24 10:43:25;;;;;;;3.10;2.53;;;;;;;29.18;38.40;102284.31;6157781;23;20009;-82
2023/06/24 10:45:55;;;;;;;4.97;2.65;;;;;;;29.47;35.93;102275.06;6155849;23;20423;-80
2023/06/24 10:48:21;;;;;;;3.20;2.40;;;;;;;29.80;35.78;102273.28;6182872;23;20139;-81
2023/06/24 10:51:06;;;;;;;3.00;2.70;;;;;;;29.81;36.22;102280.38;6183446;23;20005;-81
2023/06/24 10:53:32;;;;;;;4.88;2.40;;;;;;;29.63;34.14;102277.44;6181724;23;20063;-81
2023/06/24 10:55:58;;;;;;;3.25;2.50;;;;;;;30.03;34.54;102270.22;6181875;23;20040;-81
2023/06/24 10:58:24;;;;;;;3.88;2.90;;;;;;;30.10;33.87;102267.50;6182071;23;20383;-81
2023/06/24 11:00:49;;;;;;;3.05;2.60;;;;;;;30.17;35.29;102269.19;6181284;23;20001;-81
2023/06/24 11:03:20;;;;;;;3.17;2.55;;;;;;;29.97;34.32;102262.03;6155394;23;20060;-80
2023/06/24 11:05:48;;;;;;;3.15;2.30;;;;;;;30.08;36.00;102265.00;6184529;23;20009;-81
2023/06/24 11:08:14;;;;;;;3.53;2.60;;;;;;;30.28;33.34;102259.56;6181947;23;20012;-82
2023/06/24 11:10:47;;;;;;;3.58;2.72;;;;;;;30.24;33.54;102261.88;6182058;23;20379;-81
2023/06/24 11:13:29;;;;;;;3.55;2.53;;;;;;;30.42;34.63;102258.53;6181187;23;20008;-81
2023/06/24 11:15:59;;;;;;;4.07;3.10;;;;;;;30.67;33.98;102255.16;6154717;23;20001;-81
2023/06/24 11:18:25;;;;;;;3.45;2.83;;;;;;;30.83;33.83;102252.00;6181974;23;20005;-80
2023/06/24 11:20:53;;;;;;;3.92;2.88;;;;;;;30.56;32.73;102248.47;6181199;23;20423;-79
2023/06/24 11:23:21;;;;;;;3.25;2.95;;;;;;;30.64;33.89;102245.53;6155770;23;20079;-80